To NAV CANADA Home Page Login to a new session Search on AWWS site Feedback and Comments Disclaimer Vers la page française équivalente Tips FAQ What's new on the site To the Forecasts and Observations / NOTAM section To "File a Flight Plan" website Publications and other links Update of the User's profile FIC Telephone Numbers My Weather Data Folder Route Weather Data Regional Weather Data Local Weather Data To the Forecasts and Observations / NOTAM section
Request Generated 03/29/2015 at 06:04:28 UTC . Weather information available at that time is displayed.

METAR/TAF

BURWASH/YT    

METAR CYDB 290600Z AUTO 12012G23KT 9SM BKN100 OVC120 M00/M06 A2939
RMK SLP991=
METAR CYDB 290500Z AUTO 12010G15KT 9SM BKN160 M01/M06 A2940 RMK
SLP998=
METAR CYDB 290400Z AUTO 11008KT 9SM BKN090 BKN120 00/M06 A2941 RMK
SLP007=

TAF CYDB 290538Z 2906/2918 11012KT P6SM SCT030 BKN090 TEMPO 2906/2913
BKN020
FM291300 23008KT P6SM SKC
FM291700 12006KT P6SM SCT080
RMK FCST BASED ON AUTO OBS. NXT FCST BY 291200Z=
Your time UTC time
Weather data provided by Environment Canada and NAV CANADA